createdAt,value
2018-06-21T00:01:46.666Z,75.90
2018-06-21T00:04:14.273Z,76.00
2018-06-21T00:06:42.629Z,76.30
2018-06-21T00:09:10.281Z,76.10
2018-06-21T00:11:38.956Z,76.30
2018-06-21T00:14:07.565Z,76.00
2018-06-21T00:16:35.356Z,75.90
2018-06-21T00:19:03.944Z,76.10
2018-06-21T00:21:31.623Z,76.50
2018-06-21T00:23:59.191Z,76.70
2018-06-21T00:26:28.480Z,76.60
2018-06-21T00:28:56.698Z,76.30
2018-06-21T00:31:24.338Z,76.10
2018-06-21T00:33:51.997Z,76.20
2018-06-21T00:36:19.610Z,76.90
2018-06-21T00:38:47.173Z,76.80
2018-06-21T00:41:14.822Z,76.90
2018-06-21T00:43:42.372Z,77.20
2018-06-21T00:46:09.981Z,77.10
2018-06-21T00:48:37.664Z,77.10
2018-06-21T00:51:05.260Z,76.90
2018-06-21T00:53:32.850Z,77.00
2018-06-21T00:56:15.320Z,77.10
2018-06-21T00:58:43.108Z,76.80
2018-06-21T01:01:10.841Z,77.40
2018-06-21T01:03:38.514Z,77.60
2018-06-21T01:06:06.120Z,77.60
2018-06-21T01:08:33.742Z,77.60
2018-06-21T01:11:01.354Z,77.50
2018-06-21T01:13:28.989Z,77.60
2018-06-21T01:15:56.572Z,77.70
2018-06-21T01:18:24.200Z,78.00
2018-06-21T01:20:51.796Z,77.90
2018-06-21T01:23:19.440Z,77.80
2018-06-21T01:25:47.069Z,77.70
2018-06-21T01:28:14.656Z,77.50
2018-06-21T01:30:42.242Z,77.20
2018-06-21T01:35:37.370Z,77.30
2018-06-21T01:38:05.005Z,77.10
2018-06-21T01:40:33.647Z,77.30
2018-06-21T01:43:01.238Z,77.40
2018-06-21T01:45:28.994Z,77.60
2018-06-21T01:47:56.707Z,77.70
2018-06-21T01:50:24.965Z,77.50
2018-06-21T01:52:52.518Z,77.60
2018-06-21T01:55:20.101Z,78.20
2018-06-21T01:57:47.661Z,78.20
2018-06-21T02:00:15.229Z,77.90
2018-06-21T02:02:42.832Z,77.90
2018-06-21T02:05:10.351Z,78.10
2018-06-21T02:07:38.314Z,78.20
2018-06-21T02:10:06.079Z,78.30
2018-06-21T02:12:33.676Z,78.20
2018-06-21T02:15:01.258Z,78.10
2018-06-21T02:17:28.812Z,77.50
2018-06-21T02:19:56.360Z,77.50
2018-06-21T02:22:23.884Z,77.80
2018-06-21T02:24:51.493Z,77.70
2018-06-21T02:27:19.083Z,77.80
2018-06-21T02:29:46.626Z,77.70
2018-06-21T02:32:14.238Z,77.70
2018-06-21T02:34:42.444Z,77.80
2018-06-21T02:37:09.995Z,77.80
2018-06-21T02:39:37.533Z,78.40
2018-06-21T02:42:05.686Z,78.30
2018-06-21T02:44:33.220Z,78.20
2018-06-21T02:47:00.815Z,78.20
2018-06-21T02:49:28.392Z,78.20
2018-06-21T02:51:56.668Z,78.20
2018-06-21T02:54:24.227Z,78.30
2018-06-21T02:56:51.825Z,78.20
2018-06-21T02:59:19.451Z,78.10
2018-06-21T03:01:47.043Z,78.00
2018-06-21T03:04:14.614Z,78.40
2018-06-21T03:06:42.201Z,78.50
2018-06-21T03:09:10.216Z,78.90
2018-06-21T03:11:38.120Z,79.00
2018-06-21T03:14:05.668Z,78.70
2018-06-21T03:16:33.212Z,78.60
2018-06-21T03:19:00.784Z,79.40
2018-06-21T03:23:57.451Z,80.50
2018-06-21T03:26:25.049Z,80.40
2018-06-21T03:28:52.611Z,80.90
2018-06-21T03:31:20.147Z,80.40
2018-06-21T03:33:47.715Z,80.00
2018-06-21T03:36:15.276Z,79.20
2018-06-21T03:38:42.890Z,79.20
2018-06-21T03:41:10.463Z,79.30
2018-06-21T03:43:38.041Z,79.30
2018-06-21T03:46:05.596Z,79.20
2018-06-21T03:48:33.607Z,79.50
2018-06-21T03:51:01.206Z,79.20
2018-06-21T03:53:29.374Z,79.30
2018-06-21T03:55:57.932Z,80.20
2018-06-21T03:58:25.469Z,80.20
2018-06-21T04:00:53.043Z,80.30
2018-06-21T04:03:20.639Z,80.50
2018-06-21T04:05:48.254Z,80.20
2018-06-21T04:08:16.894Z,80.30
2018-06-21T04:10:44.467Z,80.00
2018-06-21T04:13:12.053Z,79.70
2018-06-21T04:15:39.626Z,79.70
2018-06-21T04:18:07.279Z,79.70
2018-06-21T04:20:35.269Z,79.60
2018-06-21T04:23:02.832Z,79.70
2018-06-21T04:25:30.419Z,79.70
2018-06-21T04:27:57.996Z,79.50
2018-06-21T04:30:25.555Z,79.80
2018-06-21T04:32:53.131Z,80.40
2018-06-21T04:35:20.659Z,80.70
2018-06-21T04:37:48.283Z,80.30
2018-06-21T04:40:15.891Z,80.10
2018-06-21T04:42:43.501Z,79.90
2018-06-21T04:45:11.100Z,79.60
2018-06-21T04:47:38.811Z,79.50
2018-06-21T04:50:06.359Z,79.30
2018-06-21T04:52:34.043Z,78.90
2018-06-21T04:55:01.592Z,78.90
2018-06-21T04:57:29.219Z,78.70
2018-06-21T04:59:56.893Z,78.40
2018-06-21T05:02:24.404Z,78.30
2018-06-21T05:04:51.946Z,78.30
2018-06-21T05:07:19.504Z,78.70
2018-06-21T05:09:47.112Z,78.50
2018-06-21T05:12:14.946Z,78.60
2018-06-21T05:14:42.580Z,78.30
2018-06-21T05:17:10.130Z,78.40
2018-06-21T05:19:37.685Z,78.50
2018-06-21T05:22:05.206Z,78.10
2018-06-21T05:24:32.769Z,78.50
2018-06-21T05:29:27.860Z,78.40
2018-06-21T05:31:55.442Z,78.40
2018-06-21T05:34:23.017Z,78.40
2018-06-21T05:36:50.567Z,78.40
2018-06-21T05:39:18.128Z,78.40
2018-06-21T05:41:45.646Z,77.90
2018-06-21T05:44:13.814Z,77.70
2018-06-21T05:46:41.436Z,77.60
2018-06-21T05:49:09.639Z,76.10
2018-06-21T05:51:37.245Z,76.30
2018-06-21T05:54:04.838Z,76.40
2018-06-21T05:56:33.156Z,76.40
2018-06-21T05:59:00.720Z,76.20
2018-06-21T06:01:28.340Z,76.10
2018-06-21T06:03:55.913Z,75.60
2018-06-21T06:06:23.519Z,75.90
2018-06-21T06:08:51.058Z,76.40
2018-06-21T06:11:18.625Z,76.00
2018-06-21T06:13:46.138Z,75.80
2018-06-21T06:16:13.667Z,75.20
2018-06-21T06:18:41.288Z,75.50
2018-06-21T06:21:08.803Z,74.80
2018-06-21T06:23:36.323Z,74.30
2018-06-21T06:26:03.961Z,73.90
2018-06-21T06:28:31.630Z,73.70
2018-06-21T06:30:59.223Z,73.70
2018-06-21T06:33:26.795Z,73.00
2018-06-21T06:35:55.544Z,73.40
2018-06-21T06:38:23.147Z,73.50
2018-06-21T06:40:50.699Z,73.10
2018-06-21T06:43:18.872Z,73.30
2018-06-21T06:45:46.486Z,72.70
2018-06-21T06:48:14.075Z,72.60
2018-06-21T06:50:41.631Z,72.30
2018-06-21T06:53:09.259Z,72.30
2018-06-21T06:55:36.857Z,72.00
2018-06-21T06:58:04.695Z,71.30
2018-06-21T07:00:32.248Z,71.10
2018-06-21T07:02:59.853Z,71.20
2018-06-21T07:07:54.932Z,70.80
2018-06-21T07:10:22.535Z,70.10
2018-06-21T07:12:50.144Z,70.00
2018-06-21T07:15:17.785Z,68.70
2018-06-21T07:17:45.412Z,68.60
2018-06-21T07:20:12.987Z,67.70
2018-06-21T07:22:40.607Z,67.80
2018-06-21T07:25:08.202Z,67.80
2018-06-21T07:27:35.810Z,67.70
2018-06-21T07:30:04.080Z,68.00
2018-06-21T07:32:31.731Z,68.10
2018-06-21T07:34:59.269Z,68.10
2018-06-21T07:37:27.174Z,69.00
2018-06-21T07:39:54.752Z,68.50
2018-06-21T07:42:22.336Z,68.80
2018-06-21T07:44:49.951Z,68.80
2018-06-21T07:47:17.505Z,68.70
2018-06-21T07:49:45.060Z,68.10
2018-06-21T07:52:12.615Z,67.70
2018-06-21T07:54:40.195Z,67.50
2018-06-21T07:57:07.720Z,67.90
2018-06-21T07:59:35.317Z,66.20
2018-06-21T08:02:03.777Z,66.40
2018-06-21T08:04:31.373Z,65.90
2018-06-21T08:06:58.933Z,65.30
2018-06-21T08:09:27.219Z,65.70
2018-06-21T08:11:54.841Z,65.00
2018-06-21T08:14:22.374Z,64.20
2018-06-21T08:16:49.959Z,64.20
2018-06-21T08:19:17.514Z,63.90
2018-06-21T08:21:45.103Z,64.00
2018-06-21T08:24:13.525Z,62.30
2018-06-21T08:26:41.217Z,61.40
2018-06-21T08:29:08.726Z,61.10
2018-06-21T08:31:36.323Z,59.80
2018-06-21T08:34:03.899Z,60.40
2018-06-21T08:36:31.458Z,58.90
2018-06-21T08:38:59.066Z,59.30
2018-06-21T08:41:31.696Z,58.40
2018-06-21T08:43:59.348Z,57.80
2018-06-21T08:46:27.036Z,56.60
2018-06-21T08:48:54.699Z,55.60
2018-06-21T08:51:22.265Z,56.30
2018-06-21T08:53:51.938Z,56.40
2018-06-21T08:56:19.503Z,57.50
2018-06-21T08:58:47.109Z,57.70
2018-06-21T09:03:42.241Z,57.80
2018-06-21T09:06:10.055Z,56.60
2018-06-21T09:08:37.807Z,55.00
2018-06-21T09:11:05.381Z,55.30
2018-06-21T09:13:35.522Z,54.90
2018-06-21T09:16:03.883Z,54.70
2018-06-21T09:18:31.481Z,53.20
2018-06-21T09:21:00.583Z,53.40
2018-06-21T09:23:28.106Z,53.10
2018-06-21T09:25:55.689Z,53.60
2018-06-21T09:28:23.400Z,53.90
2018-06-21T09:30:51.025Z,54.20
2018-06-21T09:33:18.703Z,54.70
2018-06-21T09:35:46.439Z,56.10
2018-06-21T09:38:19.735Z,54.20
2018-06-21T09:40:53.073Z,53.20
2018-06-21T09:45:27.820Z,52.60
2018-06-21T09:48:00.971Z,52.00
2018-06-21T09:52:55.987Z,52.30
2018-06-21T09:55:23.571Z,52.40
2018-06-21T09:57:51.197Z,52.20
2018-06-21T10:02:51.786Z,51.50
2018-06-21T10:05:19.370Z,49.60
2018-06-21T10:07:46.950Z,50.80
2018-06-21T10:10:14.585Z,49.00
2018-06-21T10:12:44.811Z,47.90
2018-06-21T10:15:12.747Z,46.70
2018-06-21T10:17:40.308Z,47.10
2018-06-21T10:20:07.900Z,47.30
2018-06-21T10:22:35.458Z,47.20
2018-06-21T10:25:03.127Z,44.90
2018-06-21T10:27:30.708Z,44.40
2018-06-21T10:29:58.285Z,45.00
2018-06-21T10:32:25.864Z,45.60
2018-06-21T10:34:53.504Z,45.60
2018-06-21T10:37:21.110Z,45.00
2018-06-21T10:39:48.793Z,45.90
2018-06-21T10:42:16.420Z,45.20
2018-06-21T10:44:43.959Z,46.50
2018-06-21T10:47:11.529Z,47.20
2018-06-21T10:49:39.926Z,46.90
2018-06-21T10:52:08.186Z,46.80
2018-06-21T10:54:35.771Z,47.10
2018-06-21T10:57:03.447Z,46.10
2018-06-21T10:59:31.037Z,45.40
2018-06-21T11:01:58.636Z,45.50
2018-06-21T11:04:26.223Z,45.40
2018-06-21T11:06:53.826Z,44.40
2018-06-21T11:09:21.390Z,44.10
2018-06-21T11:14:16.419Z,43.20
2018-06-21T11:16:43.992Z,42.50
2018-06-21T11:19:11.622Z,42.40
2018-06-21T11:21:39.222Z,41.60
2018-06-21T11:24:06.849Z,43.70
2018-06-21T11:26:34.438Z,43.40
2018-06-21T11:29:02.027Z,43.70
2018-06-21T11:31:29.651Z,43.50
2018-06-21T11:33:57.212Z,42.40
2018-06-21T11:36:24.742Z,43.00
2018-06-21T11:38:52.304Z,44.20
2018-06-21T11:41:20.840Z,43.20
2018-06-21T11:43:48.501Z,41.30
2018-06-21T11:46:16.040Z,38.90
2018-06-21T11:48:43.647Z,36.60
2018-06-21T11:51:11.175Z,31.90
2018-06-21T11:53:38.746Z,30.20
2018-06-21T11:56:06.391Z,30.60
2018-06-21T11:58:34.001Z,28.50
2018-06-21T12:03:29.199Z,27.00
2018-06-21T12:05:56.723Z,26.10
2018-06-21T12:08:24.299Z,25.90
2018-06-21T12:10:51.844Z,25.20
2018-06-21T12:13:19.586Z,25.40
2018-06-21T12:15:47.200Z,25.90
2018-06-21T12:18:15.056Z,24.50
2018-06-21T12:20:42.679Z,23.70
2018-06-21T12:23:13.140Z,25.40
2018-06-21T12:25:40.836Z,24.20
2018-06-21T12:28:08.422Z,23.80
2018-06-21T12:30:36.036Z,24.20
2018-06-21T12:33:03.571Z,24.70
2018-06-21T12:35:31.189Z,24.60
2018-06-21T12:37:58.813Z,25.50
2018-06-21T12:40:26.392Z,24.80
2018-06-21T12:42:53.923Z,24.30
2018-06-21T12:45:21.557Z,22.40
2018-06-21T12:47:49.232Z,21.80
2018-06-21T12:50:17.465Z,20.10
2018-06-21T12:52:45.056Z,20.70
2018-06-21T12:55:12.751Z,20.50
2018-06-21T12:57:40.386Z,21.90
2018-06-21T13:00:08.018Z,22.20
2018-06-21T13:02:36.261Z,21.70
2018-06-21T13:05:03.924Z,21.50
2018-06-21T13:07:31.552Z,22.30
2018-06-21T13:10:10.568Z,24.30
2018-06-21T13:12:50.587Z,25.20
2018-06-21T13:15:18.309Z,26.70
2018-06-21T13:17:45.869Z,27.00
2018-06-21T13:20:13.466Z,25.50
2018-06-21T13:25:08.589Z,25.40
2018-06-21T13:27:36.183Z,25.20
2018-06-21T13:30:05.264Z,26.60
2018-06-21T13:32:32.874Z,27.00
2018-06-21T13:35:01.351Z,26.70
2018-06-21T13:37:28.885Z,27.30
2018-06-21T13:39:56.897Z,28.30
2018-06-21T13:42:24.463Z,28.80
2018-06-21T13:44:52.915Z,29.30
2018-06-21T13:47:20.512Z,30.90
2018-06-21T13:49:48.133Z,31.80
2018-06-21T13:52:15.764Z,32.10
2018-06-21T13:54:43.391Z,32.50
2018-06-21T13:57:11.019Z,32.80
2018-06-21T13:59:38.615Z,30.40
2018-06-21T14:02:06.351Z,29.10
2018-06-21T14:04:33.910Z,29.60
2018-06-21T14:07:01.470Z,30.30
2018-06-21T14:09:29.578Z,30.10
2018-06-21T14:11:57.177Z,30.10
2018-06-21T14:14:24.841Z,30.90
2018-06-21T14:16:52.535Z,31.50
2018-06-21T14:19:20.153Z,31.90
2018-06-21T14:21:47.766Z,32.40
2018-06-21T14:24:15.424Z,33.70
2018-06-21T14:26:43.488Z,34.30
2018-06-21T14:29:11.155Z,34.40
2018-06-21T14:31:38.772Z,33.50
2018-06-21T14:34:06.336Z,31.90
2018-06-21T14:36:34.970Z,30.10
2018-06-21T14:39:04.016Z,30.00
2018-06-21T14:41:31.701Z,30.00
2018-06-21T14:43:59.295Z,31.00
2018-06-21T14:46:26.940Z,32.20
2018-06-21T14:48:54.600Z,31.50
2018-06-21T14:51:22.250Z,30.20
2018-06-21T14:53:50.002Z,29.20
2018-06-21T14:56:17.564Z,28.10
2018-06-21T14:58:45.604Z,28.30
2018-06-21T15:01:13.219Z,29.80
2018-06-21T15:03:40.888Z,29.30
2018-06-21T15:06:08.459Z,29.50
2018-06-21T15:08:36.044Z,31.20
2018-06-21T15:11:04.264Z,31.10
2018-06-21T15:13:31.856Z,32.60
2018-06-21T15:15:59.423Z,33.90
2018-06-21T15:18:27.061Z,34.00
2018-06-21T15:20:54.628Z,36.20
2018-06-21T15:23:22.253Z,37.20
2018-06-21T15:25:49.941Z,38.10
2018-06-21T15:28:18.524Z,39.20
2018-06-21T15:30:46.251Z,40.20
2018-06-21T15:33:13.925Z,39.70
2018-06-21T15:35:41.511Z,38.50
2018-06-21T15:38:09.180Z,36.40
2018-06-21T15:40:38.812Z,36.10
2018-06-21T15:43:06.411Z,35.20
2018-06-21T15:45:34.061Z,33.40
2018-06-21T15:48:01.648Z,31.80
2018-06-21T15:50:29.260Z,32.60
2018-06-21T15:52:56.803Z,34.10
2018-06-21T15:55:24.430Z,35.50
2018-06-21T15:57:52.033Z,34.80
2018-06-21T16:00:20.245Z,35.00
2018-06-21T16:02:47.815Z,36.30
2018-06-21T16:05:16.109Z,37.00
2018-06-21T16:07:43.662Z,38.60
2018-06-21T16:12:38.789Z,38.70
2018-06-21T16:15:06.437Z,39.10
2018-06-21T16:17:34.140Z,40.20
2018-06-21T16:20:01.769Z,40.40
2018-06-21T16:24:56.879Z,42.20
2018-06-21T16:27:25.256Z,42.50
2018-06-21T16:29:52.960Z,42.60
2018-06-21T16:32:20.555Z,43.40
2018-06-21T16:34:48.171Z,43.30
2018-06-21T16:37:15.814Z,43.10
2018-06-21T16:39:44.340Z,43.80
2018-06-21T16:42:12.061Z,43.60
2018-06-21T16:44:39.676Z,44.00
2018-06-21T16:47:07.318Z,44.50
2018-06-21T16:49:35.015Z,45.20
2018-06-21T16:52:02.640Z,45.50
2018-06-21T16:54:30.256Z,45.90
2018-06-21T16:56:57.846Z,46.00
2018-06-21T16:59:25.565Z,46.60
2018-06-21T17:01:53.110Z,47.10
2018-06-21T17:04:20.723Z,47.60
2018-06-21T17:06:48.381Z,47.80
2018-06-21T17:09:15.952Z,47.80
2018-06-21T17:11:43.561Z,48.00
2018-06-21T17:14:11.228Z,48.50
2018-06-21T17:16:38.831Z,48.60
2018-06-21T17:19:06.840Z,48.50
2018-06-21T17:21:34.407Z,49.30
2018-06-21T17:24:02.053Z,50.30
2018-06-21T17:26:29.801Z,51.20
2018-06-21T17:28:57.526Z,52.60
2018-06-21T17:33:52.782Z,51.80
2018-06-21T17:36:20.415Z,52.60
2018-06-21T17:38:48.141Z,51.80
2018-06-21T17:41:15.744Z,52.00
2018-06-21T17:43:43.319Z,53.10
2018-06-21T17:46:10.898Z,52.60
2018-06-21T17:48:39.260Z,53.90
2018-06-21T17:51:06.838Z,52.80
2018-06-21T17:53:34.434Z,53.80
2018-06-21T17:56:02.120Z,53.70
2018-06-21T17:58:29.797Z,54.40
2018-06-21T18:00:57.389Z,54.50
2018-06-21T18:03:24.979Z,55.20
2018-06-21T18:05:52.595Z,53.30
2018-06-21T18:08:20.206Z,53.40
2018-06-21T18:10:47.913Z,54.30
2018-06-21T18:13:15.538Z,53.50
2018-06-21T18:15:43.197Z,53.10
2018-06-21T18:18:10.878Z,53.70
2018-06-21T18:20:38.462Z,54.10
2018-06-21T18:23:06.096Z,53.70
2018-06-21T18:25:33.726Z,54.50
2018-06-21T18:28:01.620Z,54.70
2018-06-21T18:30:29.345Z,55.30
2018-06-21T18:32:57.148Z,56.00
2018-06-21T18:35:24.820Z,55.30
2018-06-21T18:37:52.559Z,54.80
2018-06-21T18:40:20.497Z,54.90
2018-06-21T18:42:48.150Z,54.80
2018-06-21T18:45:15.844Z,55.40
2018-06-21T18:50:10.975Z,55.70
2018-06-21T18:52:38.695Z,56.20
2018-06-21T18:55:07.024Z,55.50
2018-06-21T18:57:34.695Z,55.20
2018-06-21T19:00:02.389Z,55.00
2018-06-21T19:02:29.930Z,54.60
2018-06-21T19:04:57.563Z,54.40
2018-06-21T19:07:32.594Z,54.70
2018-06-21T19:12:33.246Z,54.80
2018-06-21T19:17:28.417Z,54.60
2018-06-21T19:19:56.024Z,54.50
2018-06-21T19:22:23.648Z,54.00
2018-06-21T19:24:51.393Z,53.30
2018-06-21T19:27:19.077Z,53.90
2018-06-21T19:29:46.709Z,52.90
2018-06-21T19:32:14.371Z,52.30
2018-06-21T19:34:41.962Z,52.50
2018-06-21T19:37:09.596Z,52.90
2018-06-21T19:39:37.260Z,52.80
2018-06-21T19:42:05.000Z,52.70
2018-06-21T19:44:32.639Z,52.70
2018-06-21T19:47:00.275Z,53.00
2018-06-21T19:49:27.964Z,52.70
2018-06-21T19:54:24.778Z,52.20
2018-06-21T19:56:52.440Z,51.80
2018-06-21T19:59:20.049Z,51.60
2018-06-21T20:04:15.299Z,50.90
2018-06-21T20:06:43.005Z,50.10
2018-06-21T20:09:11.869Z,50.80
2018-06-21T20:11:40.294Z,50.50
2018-06-21T20:14:07.884Z,51.00
2018-06-21T20:16:35.494Z,50.10
2018-06-21T20:19:09.343Z,47.30
2018-06-21T20:21:37.074Z,46.90
2018-06-21T20:24:04.780Z,46.60
2018-06-21T20:26:32.396Z,45.80
2018-06-21T20:28:59.983Z,46.50
2018-06-21T20:31:27.595Z,46.60
2018-06-21T20:33:55.320Z,45.40
2018-06-21T20:36:27.958Z,46.30
2018-06-21T20:38:55.604Z,45.30
2018-06-21T20:41:23.177Z,44.80
2018-06-21T20:43:51.244Z,45.30
2018-06-21T20:46:18.941Z,44.60
2018-06-21T20:48:46.843Z,44.90
2018-06-21T20:51:14.847Z,44.80
2018-06-21T20:53:43.015Z,44.40
2018-06-21T20:56:10.619Z,44.80
2018-06-21T20:58:38.201Z,44.00
2018-06-21T21:01:05.801Z,43.90
2018-06-21T21:03:33.498Z,44.10
2018-06-21T21:06:02.709Z,44.30
2018-06-21T21:08:30.265Z,43.20
2018-06-21T21:10:57.853Z,43.30
2018-06-21T21:13:25.479Z,44.30
2018-06-21T21:15:53.093Z,44.70
2018-06-21T21:18:20.666Z,44.30
2018-06-21T21:20:48.376Z,43.00
2018-06-21T21:23:16.825Z,43.80
2018-06-21T21:25:44.394Z,43.50
2018-06-21T21:28:12.011Z,42.50
2018-06-21T21:30:39.646Z,42.90
2018-06-21T21:33:07.222Z,43.30
2018-06-21T21:35:34.851Z,43.20
2018-06-21T21:38:02.453Z,43.40
2018-06-21T21:40:30.082Z,44.00
2018-06-21T21:42:57.675Z,42.50
2018-06-21T21:45:25.278Z,42.00
2018-06-21T21:47:52.901Z,42.50
2018-06-21T21:50:20.552Z,42.50
2018-06-21T21:52:48.162Z,42.50
2018-06-21T21:55:15.717Z,43.40
2018-06-21T21:57:43.332Z,42.90
2018-06-21T22:00:49.578Z,42.80
2018-06-21T22:03:17.195Z,43.10
2018-06-21T22:05:44.789Z,43.00
2018-06-21T22:08:12.390Z,42.80
2018-06-21T22:10:41.376Z,43.90
2018-06-21T22:13:09.025Z,44.10
2018-06-21T22:15:36.558Z,44.50
2018-06-21T22:18:04.396Z,44.30
2018-06-21T22:22:59.671Z,44.80
2018-06-21T22:25:27.825Z,44.10
2018-06-21T22:27:55.947Z,44.40
2018-06-21T22:30:23.560Z,44.60
2018-06-21T22:32:51.233Z,45.10
2018-06-21T22:35:19.124Z,45.10
2018-06-21T22:37:46.715Z,45.70
2018-06-21T22:40:15.299Z,45.00
2018-06-21T22:42:43.164Z,45.40
2018-06-21T22:45:10.732Z,45.60
2018-06-21T22:47:38.894Z,45.40
2018-06-21T22:50:06.491Z,45.30
2018-06-21T22:52:34.027Z,45.60
2018-06-21T22:55:02.189Z,45.80
2018-06-21T22:57:30.603Z,45.70
2018-06-21T22:59:58.391Z,46.30
2018-06-21T23:02:25.986Z,46.10
2018-06-21T23:04:54.198Z,46.10
2018-06-21T23:07:21.776Z,47.10
2018-06-21T23:09:49.342Z,46.60
2018-06-21T23:12:16.932Z,46.30
2018-06-21T23:14:44.561Z,46.70
2018-06-21T23:17:12.048Z,47.10
2018-06-21T23:19:39.665Z,47.10
2018-06-21T23:22:07.195Z,46.70
2018-06-21T23:24:34.725Z,47.50
2018-06-21T23:27:11.731Z,47.40
2018-06-21T23:29:39.265Z,47.80
2018-06-21T23:34:34.260Z,47.70
2018-06-21T23:37:01.825Z,47.40
2018-06-21T23:39:29.374Z,47.30
2018-06-21T23:41:56.968Z,48.00
2018-06-21T23:44:24.533Z,48.40
2018-06-21T23:46:53.198Z,48.40
2018-06-21T23:49:20.776Z,48.80
2018-06-21T23:51:48.377Z,48.40
2018-06-21T23:54:15.952Z,48.80
2018-06-21T23:56:44.128Z,49.20
2018-06-21T23:59:11.757Z,50.00
